Time;durP1;ratioP1;P1;durP2;ratioP2;P2;SDS_P1;SDS_P2;PMS_P1;PMS_P2;Temp;Humidity;BMP_temperature;BMP_pressure;BME280_temperature;BME280_humidity;BME280_pressure;Samples;Min_cycle;Max_cycle;Signal;HPM_P1;HPM_P2
2021/09/12 00:01:21;;;;;;;9.55;2.90;;;;;;;19.67;65.91;101834.81;5068783;28;20035;-48
2021/09/12 00:03:46;;;;;;;10.70;3.00;;;;;;;19.70;65.40;101837.47;5068637;28;20487;-52
2021/09/12 00:06:12;;;;;;;11.02;2.97;;;;;;;19.67;64.91;101834.81;5066501;28;20046;-48
2021/09/12 00:08:37;;;;;;;6.82;2.53;;;;;;;19.64;65.15;101833.06;5064846;28;20032;-51
2021/09/12 00:11:03;;;;;;;8.02;2.97;;;;;;;19.61;65.18;101833.09;5066068;28;20063;-46
2021/09/12 00:13:28;;;;;;;14.50;3.25;;;;;;;19.58;65.25;101834.91;5069565;28;20455;-46
2021/09/12 00:15:54;;;;;;;10.23;3.30;;;;;;;19.51;65.01;101826.16;5050001;28;20028;-47
2021/09/12 00:18:19;;;;;;;11.45;2.88;;;;;;;19.41;66.32;101819.13;5066081;28;20119;-51
2021/09/12 00:20:44;;;;;;;7.45;3.10;;;;;;;19.34;66.34;101817.41;5067070;28;20156;-46
2021/09/12 00:23:10;;;;;;;13.00;3.40;;;;;;;19.25;66.64;101825.44;5072098;28;20063;-46
2021/09/12 00:25:35;;;;;;;11.57;3.25;;;;;;;19.19;66.51;101815.78;5068430;28;20520;-47
2021/09/12 00:28:01;;;;;;;11.43;3.45;;;;;;;19.04;67.63;101814.09;5068547;28;20407;-49
2021/09/12 00:30:26;;;;;;;12.20;3.63;;;;;;;19.08;67.25;101809.69;5067988;28;20537;-50
2021/09/12 00:32:51;;;;;;;10.52;3.50;;;;;;;19.00;67.58;101808.84;5071932;28;20028;-47
2021/09/12 00:35:17;;;;;;;11.13;3.65;;;;;;;18.96;67.94;101802.72;5070851;28;20053;-48
2021/09/12 00:37:43;;;;;;;12.80;3.90;;;;;;;18.90;67.96;101802.78;5069616;28;20020;-48
2021/09/12 00:40:09;;;;;;;9.95;3.70;;;;;;;18.86;68.30;101790.44;5051565;28;20044;-48
2021/09/12 00:42:35;;;;;;;12.05;3.40;;;;;;;18.84;68.17;101800.16;5049136;28;20028;-48
2021/09/12 00:45:00;;;;;;;10.57;3.60;;;;;;;18.77;68.50;101794.91;5064753;28;20115;-49
2021/09/12 00:47:26;;;;;;;13.32;3.70;;;;;;;18.70;68.55;101795.81;5052910;28;20029;-46
2021/09/12 00:49:52;;;;;;;10.40;3.88;;;;;;;18.65;68.92;101801.16;5064795;28;20029;-47
2021/09/12 00:52:18;;;;;;;10.52;3.70;;;;;;;18.60;69.12;101797.66;5069977;28;20032;-48
2021/09/12 00:54:44;;;;;;;10.35;3.45;;;;;;;18.55;69.24;101797.66;5068641;28;20040;-47
2021/09/12 00:57:12;;;;;;;11.63;3.53;;;;;;;18.51;69.24;101805.56;5048764;28;20126;-47
2021/09/12 00:59:39;;;;;;;12.43;3.75;;;;;;;18.48;69.25;101801.16;5066341;28;20602;-50
2021/09/12 01:02:05;;;;;;;11.88;3.78;;;;;;;18.46;69.47;101810.88;5065724;28;20035;-47
2021/09/12 01:04:31;;;;;;;13.63;4.13;;;;;;;18.43;69.91;101807.34;5068740;28;20024;-48
2021/09/12 01:06:57;;;;;;;8.45;3.47;;;;;;;18.38;69.59;101810.03;5050485;28;20024;-49
2021/09/12 01:09:22;;;;;;;10.70;3.92;;;;;;;18.29;70.29;101810.06;5066880;28;20449;-50
2021/09/12 01:11:48;;;;;;;14.30;4.35;;;;;;;18.30;70.04;101803.03;5074224;28;20075;-49
2021/09/12 01:14:14;;;;;;;10.15;4.40;;;;;;;18.19;70.80;101792.50;5066332;28;20050;-49
2021/09/12 01:16:39;;;;;;;11.18;4.30;;;;;;;18.17;70.89;101803.06;5066386;28;20485;-48
2021/09/12 01:19:05;;;;;;;13.63;4.78;;;;;;;18.17;70.71;101807.47;5066351;28;20112;-52
2021/09/12 01:21:32;;;;;;;11.80;4.72;;;;;;;18.11;70.92;101803.06;5068217;28;20040;-52
2021/09/12 01:23:58;;;;;;;11.68;4.68;;;;;;;18.08;70.66;101807.47;5067755;28;20031;-51
2021/09/12 01:26:26;;;;;;;12.95;4.45;;;;;;;18.09;70.31;101799.56;5066536;28;20135;-48
2021/09/12 01:28:51;;;;;;;11.35;4.72;;;;;;;18.07;70.46;101795.16;5048614;28;20020;-51
2021/09/12 01:31:25;;;;;;;11.93;4.88;;;;;;;18.03;70.03;101796.94;5066956;28;20352;-48
2021/09/12 01:33:51;;;;;;;9.43;4.60;;;;;;;18.00;70.07;101801.34;5041571;28;20039;-48
2021/09/12 01:36:16;;;;;;;13.02;5.15;;;;;;;17.94;70.32;101796.06;5060953;28;20745;-53
2021/09/12 01:38:42;;;;;;;10.25;4.72;;;;;;;17.94;69.79;101801.34;5068793;28;20417;-49
2021/09/12 01:41:08;;;;;;;10.18;4.70;;;;;;;17.90;69.82;101792.56;5074284;28;20593;-50
2021/09/12 01:43:33;;;;;;;13.82;5.28;;;;;;;17.86;70.44;101800.50;5067945;28;20461;-46
2021/09/12 01:45:58;;;;;;;8.80;4.43;;;;;;;17.88;69.86;101798.72;5071818;28;20028;-47
2021/09/12 01:48:24;;;;;;;14.45;4.85;;;;;;;17.80;70.16;101802.28;5066233;28;20056;-52
2021/09/12 01:50:49;;;;;;;15.90;5.43;;;;;;;17.77;71.07;101804.03;5068060;28;20027;-48
2021/09/12 01:53:15;;;;;;;11.25;4.85;;;;;;;17.82;70.51;101811.03;5074767;28;20514;-48
2021/09/12 01:55:40;;;;;;;13.50;5.65;;;;;;;17.74;71.24;101802.28;5068275;28;20036;-48
2021/09/12 01:58:06;;;;;;;15.00;5.85;;;;;;;17.77;70.83;101801.38;5069984;28;20135;-49
2021/09/12 02:00:31;;;;;;;13.15;5.75;;;;;;;17.71;70.62;101804.91;5066361;28;20031;-51
2021/09/12 02:02:58;;;;;;;13.63;5.93;;;;;;;17.77;70.70;101796.13;5075470;28;20425;-48
2021/09/12 02:05:24;;;;;;;12.30;5.97;;;;;;;17.76;70.70;101803.16;5068473;28;20039;-48
2021/09/12 02:07:50;;;;;;;14.02;6.18;;;;;;;17.72;70.50;101806.69;5066631;28;20051;-47
2021/09/12 02:10:15;;;;;;;15.10;6.30;;;;;;;17.65;71.07;101809.31;5070587;28;20032;-50
2021/09/12 02:12:41;;;;;;;16.42;6.70;;;;;;;17.64;70.77;101810.19;5069271;28;20109;-48
2021/09/12 02:15:06;;;;;;;14.60;6.47;;;;;;;17.57;71.31;101808.38;5071302;28;20054;-47
2021/09/12 02:17:32;;;;;;;17.27;7.10;;;;;;;17.48;71.98;101805.78;5070057;28;20123;-50
2021/09/12 02:19:57;;;;;;;18.27;7.25;;;;;;;17.49;71.57;101811.06;5072414;28;20028;-48
2021/09/12 02:22:22;;;;;;;15.75;6.63;;;;;;;17.47;71.65;101807.53;5075065;28;20344;-47
2021/09/12 02:24:48;;;;;;;18.98;6.93;;;;;;;17.45;71.57;101807.53;5067615;28;20458;-48
2021/09/12 02:27:13;;;;;;;17.25;7.63;;;;;;;17.45;71.42;101811.91;5074643;28;20142;-49
2021/09/12 02:29:38;;;;;;;21.77;7.40;;;;;;;17.38;71.87;101808.41;5069783;28;20035;-51
2021/09/12 02:32:04;;;;;;;16.15;7.57;;;;;;;17.30;72.42;101806.66;5069139;28;20414;-47
2021/09/12 02:34:30;;;;;;;16.33;7.75;;;;;;;17.34;72.07;101806.66;5072843;28;20389;-48
2021/09/12 02:36:55;;;;;;;16.70;8.18;;;;;;;17.33;72.00;101807.53;5035173;28;20024;-48
2021/09/12 02:39:20;;;;;;;17.27;7.47;;;;;;;17.28;72.20;101795.22;5072078;28;20032;-47
2021/09/12 02:41:46;;;;;;;19.73;7.55;;;;;;;17.28;72.19;101804.00;5072706;28;20043;-49
2021/09/12 02:44:11;;;;;;;18.10;8.18;;;;;;;17.26;72.10;101807.53;5055093;28;20062;-51
2021/09/12 02:46:39;;;;;;;19.35;7.88;;;;;;;17.25;72.05;101808.41;5053756;28;20634;-50
2021/09/12 02:49:04;;;;;;;21.42;8.45;;;;;;;17.21;72.10;101802.25;5073520;28;20028;-47
2021/09/12 02:51:30;;;;;;;23.20;8.10;;;;;;;17.21;72.24;101804.00;5073493;28;20347;-46
2021/09/12 02:53:55;;;;;;;18.60;9.15;;;;;;;17.20;72.56;101807.53;5069367;28;20032;-47
2021/09/12 02:56:20;;;;;;;22.15;8.95;;;;;;;17.17;72.16;101800.50;5072589;28;20398;-49
2021/09/12 02:58:46;;;;;;;17.73;8.18;;;;;;;17.17;72.52;101799.63;5069948;28;20448;-47
2021/09/12 03:01:11;;;;;;;22.50;8.98;;;;;;;17.16;72.38;101803.13;5070206;28;20024;-48
2021/09/12 03:03:37;;;;;;;20.45;8.88;;;;;;;17.09;72.74;101802.22;5070955;28;20173;-51
2021/09/12 03:06:02;;;;;;;25.85;9.43;;;;;;;17.10;72.69;101801.34;5067842;28;20082;-48
2021/09/12 03:08:27;;;;;;;15.90;8.73;;;;;;;17.16;73.27;101805.75;5073876;28;20028;-49
2021/09/12 03:10:53;;;;;;;24.83;9.57;;;;;;;17.27;72.72;101806.63;5070764;28;20036;-49
2021/09/12 03:13:18;;;;;;;22.55;9.23;;;;;;;17.34;72.95;101814.56;5071543;28;20044;-47
2021/09/12 03:15:43;;;;;;;20.60;9.13;;;;;;;17.41;72.73;101807.53;5070591;28;20059;-47
2021/09/12 03:18:09;;;;;;;23.38;9.32;;;;;;;17.48;72.51;101817.19;5072587;28;20020;-47
2021/09/12 03:20:34;;;;;;;22.45;9.52;;;;;;;17.54;72.45;101804.03;5070288;28;20060;-48
2021/09/12 03:23:00;;;;;;;20.15;9.00;;;;;;;17.56;72.14;101809.31;5069098;28;20024;-49
2021/09/12 03:25:25;;;;;;;25.45;9.43;;;;;;;17.69;71.67;101803.16;5071423;28;20830;-48
2021/09/12 03:27:52;;;;;;;22.55;9.70;;;;;;;17.73;71.60;101795.25;5073086;28;20028;-49
2021/09/12 03:30:19;;;;;;;23.77;9.38;;;;;;;17.80;71.33;101801.41;5069719;28;20091;-49
2021/09/12 03:32:44;;;;;;;22.50;9.60;;;;;;;17.87;71.32;101802.28;5070770;28;20123;-49
2021/09/12 03:35:09;;;;;;;22.73;9.93;;;;;;;17.93;71.11;101799.63;5067524;28;20036;-49
2021/09/12 03:37:35;;;;;;;25.90;9.55;;;;;;;17.92;71.30;101798.75;5038795;28;20065;-47
2021/09/12 03:40:01;;;;;;;20.95;8.95;;;;;;;17.97;70.78;101807.50;5069560;28;20111;-47
2021/09/12 03:42:26;;;;;;;22.75;9.00;;;;;;;18.01;70.44;101801.34;5068854;28;20022;-50
2021/09/12 03:44:51;;;;;;;23.20;10.00;;;;;;;18.06;70.14;101811.88;5069735;28;20031;-52
2021/09/12 03:47:17;;;;;;;25.98;10.27;;;;;;;18.11;69.96;101810.13;5069774;28;20024;-54
2021/09/12 03:49:42;;;;;;;23.77;9.50;;;;;;;18.14;70.39;101816.25;5072673;28;20031;-48
2021/09/12 03:52:08;;;;;;;23.67;9.57;;;;;;;18.08;71.29;101812.75;5064416;28;20042;-47
2021/09/12 03:54:33;;;;;;;22.60;9.88;;;;;;;18.17;70.51;101815.38;5067091;28;20420;-49
2021/09/12 03:56:58;;;;;;;23.90;9.82;;;;;;;18.13;70.65;101818.91;5069802;28;20369;-50
2021/09/12 03:59:23;;;;;;;26.63;9.85;;;;;;;18.16;70.96;101813.63;5067847;28;20047;-48
2021/09/12 04:01:49;;;;;;;20.63;9.27;;;;;;;18.25;70.39;101813.59;5066434;28;20028;-50
2021/09/12 04:04:14;;;;;;;27.33;10.45;;;;;;;18.20;70.37;101815.38;5064820;28;20085;-49
2021/09/12 04:06:39;;;;;;;21.77;10.20;;;;;;;18.14;70.62;101813.63;5069010;28;20081;-49
2021/09/12 04:09:06;;;;;;;28.88;10.77;;;;;;;18.11;70.72;101807.50;5072723;28;20291;-49
2021/09/12 04:11:31;;;;;;;26.45;10.32;;;;;;;18.02;71.03;101815.41;5047089;28;21287;-49
2021/09/12 04:13:56;;;;;;;25.50;10.23;;;;;;;17.94;71.20;101811.91;5047713;28;20040;-48
2021/09/12 04:16:22;;;;;;;24.35;10.65;;;;;;;17.87;71.53;101800.47;5069643;28;20032;-49
2021/09/12 04:18:47;;;;;;;27.23;10.52;;;;;;;17.75;71.86;101804.03;5054747;28;20338;-50
2021/09/12 04:21:12;;;;;;;30.42;9.90;;;;;;;17.70;72.27;101803.16;5068399;28;20024;-53
2021/09/12 04:23:38;;;;;;;33.60;11.85;;;;;;;17.56;72.86;101798.75;5068158;28;20031;-49
2021/09/12 04:26:03;;;;;;;23.52;10.30;;;;;;;17.52;72.68;101802.25;5068521;28;20626;-54
2021/09/12 04:28:29;;;;;;;30.98;11.63;;;;;;;17.44;73.50;101800.50;5064931;28;20632;-52
2021/09/12 04:30:55;;;;;;;31.98;11.70;;;;;;;17.42;73.24;101801.38;5071986;28;20224;-48
2021/09/12 04:33:21;;;;;;;33.40;11.80;;;;;;;17.39;73.25;101802.25;5065231;28;20035;-48
2021/09/12 04:35:46;;;;;;;28.13;10.95;;;;;;;17.39;73.22;101796.97;5069479;28;20032;-50
2021/09/12 04:38:11;;;;;;;30.60;10.55;;;;;;;17.34;73.25;101798.75;5065418;28;20198;-48
2021/09/12 04:40:37;;;;;;;29.75;10.55;;;;;;;17.32;73.51;101800.47;5067831;28;20088;-51
2021/09/12 04:43:04;;;;;;;30.17;11.38;;;;;;;17.31;73.10;101792.59;5070727;28;20020;-52
2021/09/12 04:45:30;;;;;;;30.20;12.82;;;;;;;17.31;73.80;101795.25;5052269;28;20665;-49
2021/09/12 04:47:55;;;;;;;31.67;12.30;;;;;;;17.25;73.94;101796.13;5070121;28;20573;-51
2021/09/12 04:50:21;;;;;;;36.38;12.63;;;;;;;17.24;74.24;101798.75;5050359;28;20024;-50
2021/09/12 04:52:47;;;;;;;31.63;12.45;;;;;;;17.24;73.93;101799.63;5051900;28;20463;-50
2021/09/12 04:55:12;;;;;;;42.90;13.32;;;;;;;17.22;74.48;101804.00;5068973;28;20032;-47
2021/09/12 04:57:38;;;;;;;39.03;14.43;;;;;;;17.20;74.69;101800.47;5062738;28;20103;-47
2021/09/12 05:00:04;;;;;;;39.95;13.40;;;;;;;17.20;74.66;101797.84;5071872;28;20098;-47
2021/09/12 05:02:29;;;;;;;38.13;13.82;;;;;;;17.20;74.69;101797.84;5068531;28;20093;-48
2021/09/12 05:04:54;;;;;;;35.30;13.25;;;;;;;17.21;74.88;101798.72;5067454;28;20501;-48
2021/09/12 05:07:20;;;;;;;33.55;13.18;;;;;;;17.18;74.93;101801.38;5067055;28;20028;-49
2021/09/12 05:09:45;;;;;;;38.28;13.98;;;;;;;17.16;75.36;101797.84;5069952;28;20421;-47
2021/09/12 05:12:10;;;;;;;36.92;14.10;;;;;;;17.16;75.33;101804.00;5067797;28;20036;-50
2021/09/12 05:14:36;;;;;;;42.90;14.75;;;;;;;17.14;75.58;101805.75;5051150;28;20028;-48
2021/09/12 05:17:01;;;;;;;41.70;15.35;;;;;;;17.20;75.67;101803.13;5065832;28;20020;-50
2021/09/12 05:19:26;;;;;;;37.58;13.52;;;;;;;17.28;75.46;101805.75;5063843;28;20035;-49
2021/09/12 05:21:52;;;;;;;44.72;14.63;;;;;;;17.29;75.58;101810.16;5066253;28;20098;-48
2021/09/12 05:24:17;;;;;;;42.55;15.00;;;;;;;17.28;75.07;101814.56;5068665;28;20077;-49
2021/09/12 05:26:43;;;;;;;39.22;13.73;;;;;;;17.28;75.32;101806.66;5063740;28;20043;-50
2021/09/12 05:29:08;;;;;;;39.58;14.25;;;;;;;17.30;75.29;101804.03;5069385;28;20489;-51
2021/09/12 05:31:33;;;;;;;43.63;14.77;;;;;;;17.32;75.32;101810.19;5066958;28;20553;-46
2021/09/12 05:33:59;;;;;;;39.10;14.32;;;;;;;17.34;75.47;101800.50;5066215;28;20098;-50
2021/09/12 05:36:24;;;;;;;33.95;13.90;;;;;;;17.42;75.35;101798.75;5066475;28;20610;-49
2021/09/12 05:38:50;;;;;;;37.58;14.48;;;;;;;17.45;75.41;101802.25;5066466;28;20032;-50
2021/09/12 05:41:16;;;;;;;37.22;13.85;;;;;;;17.51;75.60;101806.63;5068373;28;20508;-52
2021/09/12 05:43:42;;;;;;;41.50;14.95;;;;;;;17.53;75.62;101804.91;5071120;28;20032;-50
2021/09/12 05:46:08;;;;;;;40.33;14.77;;;;;;;17.68;75.50;101809.31;5069605;28;20085;-47
2021/09/12 05:48:33;;;;;;;40.78;15.13;;;;;;;17.83;75.43;101809.28;5072690;28;20028;-48
2021/09/12 05:50:58;;;;;;;36.03;14.18;;;;;;;18.06;74.80;101812.75;5063976;28;20107;-50
2021/09/12 05:53:25;;;;;;;33.92;13.52;;;;;;;18.20;74.00;101812.72;5068662;28;20032;-50
2021/09/12 05:55:50;;;;;;;33.67;13.38;;;;;;;18.34;73.63;101815.31;5068486;28;20555;-50
2021/09/12 05:58:16;;;;;;;31.30;13.73;;;;;;;18.39;72.71;101816.19;5067031;28;20055;-48
2021/09/12 06:00:41;;;;;;;27.42;12.65;;;;;;;18.59;73.09;101819.66;5055044;28;20119;-49
2021/09/12 06:03:06;;;;;;;30.90;12.75;;;;;;;18.82;72.13;101817.78;5054364;28;20051;-48
2021/09/12 06:05:32;;;;;;;32.00;12.82;;;;;;;18.83;71.34;101818.66;5072419;28;20058;-47
2021/09/12 06:07:57;;;;;;;31.38;12.43;;;;;;;18.98;70.75;101818.56;5048660;28;20039;-49
2021/09/12 06:10:23;;;;;;;29.70;12.15;;;;;;;19.02;70.10;101830.88;5069514;28;20067;-51
2021/09/12 06:12:48;;;;;;;30.98;12.75;;;;;;;19.04;70.26;101823.78;5071666;28;20436;-48
2021/09/12 06:15:14;;;;;;;27.00;12.20;;;;;;;19.13;69.94;101822.88;5064321;28;20036;-48
2021/09/12 06:17:39;;;;;;;30.50;12.27;;;;;;;19.06;69.73;101832.59;5066230;28;20128;-51
2021/09/12 06:20:05;;;;;;;26.45;12.07;;;;;;;19.21;69.90;101827.19;5061752;28;20139;-52
2021/09/12 06:22:31;;;;;;;28.77;12.00;;;;;;;19.26;69.08;101825.44;5052595;28;20391;-47
2021/09/12 06:24:56;;;;;;;26.98;11.95;;;;;;;19.31;69.11;101826.28;5072500;28;20017;-47
2021/09/12 06:27:21;;;;;;;30.40;12.20;;;;;;;19.35;69.03;101817.41;5068166;28;20040;-48
2021/09/12 06:29:47;;;;;;;28.85;12.68;;;;;;;19.32;69.09;101819.22;5055652;28;20028;-48
2021/09/12 06:32:12;;;;;;;29.10;12.40;;;;;;;19.36;69.03;101823.56;5069585;28;20020;-49
2021/09/12 06:34:38;;;;;;;26.80;12.55;;;;;;;19.44;68.81;101827.94;5069917;28;20024;-51
2021/09/12 06:37:04;;;;;;;29.13;13.10;;;;;;;19.46;69.29;101825.28;5069361;28;20415;-49
2021/09/12 06:39:29;;;;;;;29.27;12.18;;;;;;;19.51;68.83;101827.91;5069305;28;20647;-46
2021/09/12 06:41:55;;;;;;;29.15;12.13;;;;;;;19.58;68.18;101837.56;5070647;28;20035;-49
2021/09/12 06:44:20;;;;;;;28.20;12.32;;;;;;;19.60;68.79;101831.34;5069084;28;20081;-49
2021/09/12 06:46:45;;;;;;;34.53;13.10;;;;;;;19.62;68.85;101834.88;5064466;28;20133;-48
2021/09/12 06:49:11;;;;;;;29.60;12.52;;;;;;;19.72;68.77;101833.00;5066178;28;20480;-49
2021/09/12 06:51:36;;;;;;;31.75;12.93;;;;;;;19.73;68.91;101834.75;5066713;28;20046;-51
2021/09/12 06:54:02;;;;;;;32.83;13.20;;;;;;;19.87;68.34;101839.94;5072436;28;20496;-50
2021/09/12 06:56:27;;;;;;;28.45;13.43;;;;;;;20.04;67.53;101843.28;5056041;28;20359;-50
2021/09/12 06:58:52;;;;;;;35.17;13.48;;;;;;;20.13;67.59;101840.53;5074142;28;20090;-48
2021/09/12 07:01:19;;;;;;;29.17;13.57;;;;;;;20.22;67.22;101841.31;5067336;28;20555;-48
2021/09/12 07:03:44;;;;;;;36.13;13.75;;;;;;;20.33;67.45;101835.06;5072972;28;20036;-49
2021/09/12 07:06:09;;;;;;;32.70;14.63;;;;;;;20.33;67.46;101838.59;5075354;28;20348;-51
2021/09/12 07:08:36;;;;;;;34.28;14.23;;;;;;;20.33;67.42;101843.00;5053824;28;20032;-48
2021/09/12 07:11:02;;;;;;;32.65;14.48;;;;;;;20.50;66.33;101844.56;5071864;28;20476;-48
2021/09/12 07:13:27;;;;;;;32.58;15.35;;;;;;;20.64;66.49;101847.03;5073155;28;20433;-51
2021/09/12 07:15:53;;;;;;;34.58;14.80;;;;;;;20.65;66.64;101843.50;5071718;28;20057;-48
2021/09/12 07:18:18;;;;;;;35.50;14.65;;;;;;;20.71;66.49;101839.88;5072477;28;20051;-51
2021/09/12 07:20:43;;;;;;;37.03;15.80;;;;;;;20.81;65.99;101844.16;5066674;28;20108;-48
2021/09/12 07:23:09;;;;;;;36.40;15.43;;;;;;;20.84;65.99;101839.72;5072359;28;20031;-48
2021/09/12 07:25:34;;;;;;;38.33;16.33;;;;;;;20.89;65.51;101843.16;5066197;28;20759;-51
2021/09/12 07:28:00;;;;;;;36.33;16.38;;;;;;;20.80;66.71;101843.28;5072067;28;20524;-49
2021/09/12 07:30:25;;;;;;;36.50;15.60;;;;;;;20.86;66.88;101842.34;5069473;28;20023;-49
2021/09/12 07:32:51;;;;;;;31.92;14.88;;;;;;;21.11;66.87;101848.16;5071154;28;20024;-52
2021/09/12 07:35:16;;;;;;;34.70;15.63;;;;;;;21.33;65.43;101841.69;5070150;28;20023;-52
2021/09/12 07:37:42;;;;;;;37.60;16.00;;;;;;;21.42;64.93;101850.34;5071504;28;20016;-48
2021/09/12 07:40:08;;;;;;;32.42;16.23;;;;;;;21.52;65.42;101855.53;5053164;28;20117;-48
2021/09/12 07:42:33;;;;;;;35.50;16.35;;;;;;;21.55;64.33;101860.78;5071212;28;20222;-48
2021/09/12 07:44:58;;;;;;;41.38;16.80;;;;;;;21.56;64.30;101859.88;5071030;28;20973;-51
2021/09/12 07:47:24;;;;;;;39.10;17.50;;;;;;;21.41;64.95;101867.16;5073757;28;20375;-50
2021/09/12 07:49:49;;;;;;;32.85;15.80;;;;;;;21.47;64.32;101862.69;5069357;28;20415;-52
2021/09/12 07:52:14;;;;;;;35.55;16.63;;;;;;;21.51;64.39;101867.91;5071214;28;20107;-46
2021/09/12 07:54:40;;;;;;;39.53;17.42;;;;;;;21.53;64.01;101871.41;5072094;28;20721;-49
2021/09/12 07:57:05;;;;;;;40.95;17.25;;;;;;;21.56;64.57;101873.13;5072819;28;21038;-47
2021/09/12 07:59:30;;;;;;;41.15;18.50;;;;;;;21.57;65.09;101865.16;5070507;28;20086;-51
2021/09/12 08:01:56;;;;;;;43.65;17.23;;;;;;;21.73;63.64;101879.03;5070284;28;20032;-48
2021/09/12 08:04:22;;;;;;;39.95;16.98;;;;;;;21.87;63.78;101874.38;5068449;28;20438;-48
2021/09/12 08:06:47;;;;;;;33.60;16.38;;;;;;;21.82;63.86;101878.91;5068160;28;20112;-47
2021/09/12 08:09:12;;;;;;;41.92;17.00;;;;;;;21.97;64.09;101888.41;5072265;28;20030;-47
2021/09/12 08:11:38;;;;;;;35.00;16.10;;;;;;;22.46;62.72;101885.72;5070449;28;20509;-47
2021/09/12 08:14:04;;;;;;;35.90;17.77;;;;;;;22.57;61.65;101894.34;5054767;28;20467;-49
2021/09/12 08:16:29;;;;;;;38.50;17.70;;;;;;;22.50;61.46;101882.09;5071444;28;20068;-47
2021/09/12 08:18:54;;;;;;;43.55;17.85;;;;;;;22.49;61.81;101881.22;5067096;28;20035;-47
2021/09/12 08:21:20;;;;;;;34.75;17.65;;;;;;;22.66;61.78;101888.84;5063547;28;20469;-47
2021/09/12 08:23:45;;;;;;;39.00;18.23;;;;;;;22.53;62.23;101885.56;5067562;28;20028;-48
2021/09/12 08:26:11;;;;;;;32.88;17.15;;;;;;;22.74;61.71;101891.38;5062733;28;20024;-48
2021/09/12 08:28:36;;;;;;;33.72;17.25;;;;;;;23.06;60.68;101883.56;5053476;28;20035;-47
2021/09/12 08:31:02;;;;;;;35.72;17.40;;;;;;;23.26;60.55;101888.44;5066246;28;20178;-51
2021/09/12 08:33:27;;;;;;;37.78;17.73;;;;;;;23.57;60.45;101893.97;5051211;28;20030;-50
2021/09/12 08:35:53;;;;;;;35.53;17.15;;;;;;;23.98;58.24;101904.44;5065076;28;20032;-51
2021/09/12 08:38:18;;;;;;;35.80;17.10;;;;;;;24.18;59.00;101896.84;5068742;28;20028;-51
2021/09/12 08:40:44;;;;;;;34.15;16.20;;;;;;;24.68;56.87;101897.25;5072149;28;20441;-48
2021/09/12 08:43:10;;;;;;;31.60;15.98;;;;;;;24.84;56.71;101894.97;5065706;28;20032;-47
2021/09/12 08:45:36;;;;;;;34.83;15.70;;;;;;;24.60;56.50;101899.25;5043450;28;20043;-47
2021/09/12 08:48:02;;;;;;;34.67;16.63;;;;;;;24.71;55.68;101891.81;5066907;28;20661;-48
2021/09/12 08:50:27;;;;;;;40.17;17.67;;;;;;;24.42;57.11;101895.31;5068705;28;20035;-49
2021/09/12 08:52:53;;;;;;;34.22;16.42;;;;;;;24.28;56.81;101892.13;5048378;28;20030;-48
2021/09/12 08:55:18;;;;;;;31.63;16.00;;;;;;;24.00;58.27;101899.09;5068840;28;20104;-49
2021/09/12 08:57:46;;;;;;;30.20;16.15;;;;;;;23.85;58.11;101903.88;5071441;28;20479;-50
2021/09/12 09:00:15;;;;;;;25.50;14.75;;;;;;;23.76;58.01;101908.59;5066917;28;20043;-51
2021/09/12 09:02:40;;;;;;;35.03;15.80;;;;;;;23.60;59.24;101905.44;5051198;28;20039;-48
2021/09/12 09:05:06;;;;;;;28.13;16.10;;;;;;;23.41;59.52;101917.38;5064244;28;20024;-48
2021/09/12 09:07:32;;;;;;;28.63;15.85;;;;;;;23.48;59.30;101920.81;5067755;28;20063;-48
2021/09/12 09:10:00;;;;;;;31.75;15.30;;;;;;;23.55;60.00;101915.28;5070320;28;21111;-48
2021/09/12 09:12:33;;;;;;;32.25;15.27;;;;;;;23.75;59.54;101909.50;5063470;28;20027;-47
2021/09/12 09:15:02;;;;;;;28.85;14.73;;;;;;;23.93;59.42;101910.81;5065700;28;20051;-47
2021/09/12 09:17:27;;;;;;;32.63;15.30;;;;;;;24.02;59.46;101911.47;5066313;28;20115;-48
2021/09/12 09:19:54;;;;;;;28.00;14.23;;;;;;;24.23;58.01;101910.03;5070035;28;20825;-51
2021/09/12 09:22:31;;;;;;;26.00;13.70;;;;;;;24.18;58.01;101909.25;5068458;28;20020;-49
2021/09/12 09:25:06;;;;;;;21.40;12.25;;;;;;;24.40;58.53;101909.56;5067383;28;20063;-48
2021/09/12 09:27:52;;;;;;;26.00;12.70;;;;;;;24.95;56.87;101906.25;5067296;28;20028;-49
2021/09/12 09:30:17;;;;;;;20.50;12.07;;;;;;;25.39;56.02;101903.09;5067391;28;20578;-50
2021/09/12 09:32:43;;;;;;;22.20;12.45;;;;;;;25.62;56.69;101899.69;5069451;28;20031;-49
2021/09/12 09:35:12;;;;;;;19.95;12.65;;;;;;;25.29;55.35;101890.09;5047382;28;20423;-47
2021/09/12 09:37:46;;;;;;;21.55;12.73;;;;;;;25.14;54.97;101898.56;5060939;28;20059;-46
2021/09/12 09:40:11;;;;;;;21.20;12.07;;;;;;;24.96;54.40;101897.31;5050457;28;20036;-51
2021/09/12 09:42:39;;;;;;;19.23;10.98;;;;;;;24.57;55.38;101905.56;5065516;28;20124;-46
2021/09/12 09:45:21;;;;;;;20.73;9.73;;;;;;;24.23;56.13;101905.59;5068095;28;20463;-47
2021/09/12 09:47:48;;;;;;;22.48;8.90;;;;;;;23.98;57.36;101904.44;5065509;28;20163;-47
2021/09/12 09:50:13;;;;;;;15.13;7.95;;;;;;;;;;5064514;28;20541;-49
2021/09/12 09:52:47;;;;;;;10.55;6.45;;;;;;;23.81;57.63;101912.00;5067794;28;20140;-47
2021/09/12 09:55:17;;;;;;;9.85;5.82;;;;;;;23.73;58.55;101911.31;5052126;28;20020;-49
2021/09/12 09:57:47;;;;;;;9.13;5.40;;;;;;;23.68;58.33;101910.53;5068643;28;20063;-49
2021/09/12 10:00:13;;;;;;;8.05;4.90;;;;;;;23.80;57.10;101915.56;5070261;28;20046;-49
2021/09/12 10:02:39;;;;;;;7.78;4.35;;;;;;;23.97;57.55;101915.16;5055196;28;20097;-48
2021/09/12 10:05:07;;;;;;;5.63;3.88;;;;;;;24.17;57.57;101913.72;5070667;28;20074;-48
2021/09/12 10:07:34;;;;;;;5.93;3.70;;;;;;;24.39;56.34;101913.19;5072506;28;20582;-49
2021/09/12 10:10:01;;;;;;;11.55;3.47;;;;;;;24.72;56.18;101916.69;5072605;28;20024;-47
2021/09/12 10:12:26;;;;;;;7.05;3.63;;;;;;;25.24;54.21;101918.72;5068786;28;20023;-48
2021/09/12 10:14:56;;;;;;;15.43;3.17;;;;;;;25.34;52.95;101922.84;5059985;28;20059;-49
2021/09/12 10:17:28;;;;;;;6.88;2.72;;;;;;;25.33;52.91;101921.97;5066103;28;20571;-48
2021/09/12 10:20:05;;;;;;;3.80;2.40;;;;;;;25.44;51.65;101917.16;5068665;28;20028;-49
2021/09/12 10:22:31;;;;;;;22.98;2.90;;;;;;;25.51;51.05;101922.28;5068324;28;20081;-47
2021/09/12 10:25:06;;;;;;;3.85;2.40;;;;;;;25.52;52.32;101918.72;5071044;28;20075;-46
2021/09/12 10:27:41;;;;;;;24.08;2.95;;;;;;;25.48;52.61;101922.41;5063092;28;20480;-49
2021/09/12 10:30:40;;;;;;;5.85;2.25;;;;;;;25.60;51.14;101919.38;5052804;28;20107;-48
2021/09/12 10:33:09;;;;;;;11.25;1.92;;;;;;;25.72;49.93;101919.84;5069560;28;20076;-48
2021/09/12 10:35:50;;;;;;;3.97;1.73;;;;;;;25.84;49.74;101929.25;5068157;28;20024;-47
2021/09/12 10:38:26;;;;;;;4.70;2.22;;;;;;;25.97;49.64;101922.59;5069824;28;20077;-47
2021/09/12 10:40:53;;;;;;;3.15;1.52;;;;;;;25.79;48.34;101916.06;5051359;28;20032;-51
2021/09/12 10:43:25;;;;;;;3.90;1.63;;;;;;;25.70;49.83;101919.03;5063401;28;20685;-49
2021/09/12 10:46:06;;;;;;;4.97;1.50;;;;;;;25.71;50.30;101919.91;5067973;28;20020;-50
2021/09/12 10:48:33;;;;;;;2.35;1.58;;;;;;;25.86;50.29;101922.03;5068428;28;20107;-52
2021/09/12 10:51:22;;;;;;;4.25;1.60;;;;;;;25.63;50.79;101912.13;5071253;28;20547;-50
2021/09/12 10:53:59;;;;;;;2.78;1.50;;;;;;;25.66;48.71;101912.03;5049697;28;20488;-47
2021/09/12 10:56:24;;;;;;;2.95;1.30;;;;;;;25.48;51.16;101915.28;5050584;28;20030;-47
2021/09/12 10:58:53;;;;;;;3.13;1.40;;;;;;;25.42;51.99;101920.81;5067155;28;20063;-52
2021/09/12 11:01:34;;;;;;;4.68;1.65;;;;;;;25.31;50.82;101918.47;5069168;28;20336;-46
2021/09/12 11:04:00;;;;;;;2.90;1.58;;;;;;;25.15;48.66;101917.19;5045678;28;20024;-48
2021/09/12 11:06:30;;;;;;;3.45;1.40;;;;;;;25.24;50.82;101921.38;5065990;28;20036;-46
2021/09/12 11:08:56;;;;;;;2.75;1.40;;;;;;;25.36;50.54;101915.66;5069478;28;20036;-47
2021/09/12 11:11:23;;;;;;;4.68;1.40;;;;;;;25.00;50.23;101923.00;5046184;28;20777;-48